sensor_id;sensor_type;location;lat;lon;timestamp;P1;durP1;ratioP1;P2;durP2;ratioP2
43933;SDS011;59081;42.706;23.306;2024-03-23T00:55:21;18.95;;;11.15;;
43933;SDS011;59081;42.706;23.306;2024-03-23T01:00:22;20.75;;;9.95;;
43933;SDS011;59081;42.706;23.306;2024-03-23T01:05:22;21.40;;;10.43;;
43933;SDS011;59081;42.706;23.306;2024-03-23T01:10:23;20.33;;;9.57;;
43933;SDS011;59081;42.706;23.306;2024-03-23T01:15:23;19.77;;;9.15;;
43933;SDS011;59081;42.706;23.306;2024-03-23T01:20:24;22.40;;;8.48;;
43933;SDS011;59081;42.706;23.306;2024-03-23T01:25:24;14.77;;;8.00;;
43933;SDS011;59081;42.706;23.306;2024-03-23T01:30:25;17.63;;;8.50;;
43933;SDS011;59081;42.706;23.306;2024-03-23T01:40:29;16.85;;;8.70;;
43933;SDS011;59081;42.706;23.306;2024-03-23T01:45:32;15.48;;;8.32;;
43933;SDS011;59081;42.706;23.306;2024-03-23T01:50:32;16.48;;;8.73;;
43933;SDS011;59081;42.706;23.306;2024-03-23T01:55:34;19.45;;;9.75;;
43933;SDS011;59081;42.706;23.306;2024-03-23T02:00:34;18.15;;;8.75;;
43933;SDS011;59081;42.706;23.306;2024-03-23T02:05:35;18.80;;;8.85;;
43933;SDS011;59081;42.706;23.306;2024-03-23T02:10:35;16.00;;;8.27;;
43933;SDS011;59081;42.706;23.306;2024-03-23T02:15:37;14.75;;;8.20;;
43933;SDS011;59081;42.706;23.306;2024-03-23T02:20:39;21.13;;;9.93;;
43933;SDS011;59081;42.706;23.306;2024-03-23T02:25:39;15.27;;;9.18;;
43933;SDS011;59081;42.706;23.306;2024-03-23T02:30:40;21.48;;;9.10;;
43933;SDS011;59081;42.706;23.306;2024-03-23T02:35:41;20.95;;;10.65;;
43933;SDS011;59081;42.706;23.306;2024-03-23T02:40:42;17.08;;;8.80;;
43933;SDS011;59081;42.706;23.306;2024-03-23T02:45:42;15.02;;;7.75;;
43933;SDS011;59081;42.706;23.306;2024-03-23T02:50:43;21.60;;;8.05;;
43933;SDS011;59081;42.706;23.306;2024-03-23T02:55:43;13.52;;;6.72;;
43933;SDS011;59081;42.706;23.306;2024-03-23T03:00:44;13.05;;;7.53;;
43933;SDS011;59081;42.706;23.306;2024-03-23T03:05:45;11.63;;;6.97;;
43933;SDS011;59081;42.706;23.306;2024-03-23T03:10:45;13.23;;;7.90;;
43933;SDS011;59081;42.706;23.306;2024-03-23T03:15:46;14.40;;;7.47;;
43933;SDS011;59081;42.706;23.306;2024-03-23T03:20:47;13.30;;;7.18;;
43933;SDS011;59081;42.706;23.306;2024-03-23T03:25:47;14.23;;;7.40;;
43933;SDS011;59081;42.706;23.306;2024-03-23T03:30:48;24.70;;;7.82;;
43933;SDS011;59081;42.706;23.306;2024-03-23T03:35:48;12.25;;;6.85;;
43933;SDS011;59081;42.706;23.306;2024-03-23T03:40:49;15.95;;;6.57;;
43933;SDS011;59081;42.706;23.306;2024-03-23T03:45:57;15.15;;;6.78;;
43933;SDS011;59081;42.706;23.306;2024-03-23T03:50:59;11.07;;;6.32;;
43933;SDS011;59081;42.706;23.306;2024-03-23T03:56:00;10.20;;;5.65;;
43933;SDS011;59081;42.706;23.306;2024-03-23T04:01:02;10.00;;;5.68;;
43933;SDS011;59081;42.706;23.306;2024-03-23T04:06:02;9.27;;;5.60;;
43933;SDS011;59081;42.706;23.306;2024-03-23T04:11:03;12.40;;;6.03;;
43933;SDS011;59081;42.706;23.306;2024-03-23T04:16:04;12.40;;;6.85;;
43933;SDS011;59081;42.706;23.306;2024-03-23T04:21:05;28.10;;;9.95;;
43933;SDS011;59081;42.706;23.306;2024-03-23T04:26:06;14.63;;;6.78;;
43933;SDS011;59081;42.706;23.306;2024-03-23T04:31:06;14.32;;;7.15;;
43933;SDS011;59081;42.706;23.306;2024-03-23T04:36:07;12.55;;;7.22;;
43933;SDS011;59081;42.706;23.306;2024-03-23T04:41:07;11.82;;;6.80;;
43933;SDS011;59081;42.706;23.306;2024-03-23T04:46:08;14.07;;;6.50;;
43933;SDS011;59081;42.706;23.306;2024-03-23T04:51:09;12.82;;;6.80;;
43933;SDS011;59081;42.706;23.306;2024-03-23T04:56:09;14.60;;;6.97;;
43933;SDS011;59081;42.706;23.306;2024-03-23T05:01:10;14.52;;;7.65;;
43933;SDS011;59081;42.706;23.306;2024-03-23T05:06:11;15.07;;;8.18;;
43933;SDS011;59081;42.706;23.306;2024-03-23T05:11:12;15.20;;;7.50;;
43933;SDS011;59081;42.706;23.306;2024-03-23T05:16:13;13.25;;;6.80;;
43933;SDS011;59081;42.706;23.306;2024-03-23T05:21:17;12.57;;;6.60;;
43933;SDS011;59081;42.706;23.306;2024-03-23T05:26:18;12.52;;;6.25;;
43933;SDS011;59081;42.706;23.306;2024-03-23T05:31:28;10.48;;;5.78;;
43933;SDS011;59081;42.706;23.306;2024-03-23T05:36:31;13.90;;;6.25;;
43933;SDS011;59081;42.706;23.306;2024-03-23T05:41:32;10.90;;;5.60;;
43933;SDS011;59081;42.706;23.306;2024-03-23T05:51:36;14.05;;;7.45;;
43933;SDS011;59081;42.706;23.306;2024-03-23T05:56:37;9.60;;;6.43;;
43933;SDS011;59081;42.706;23.306;2024-03-23T06:01:37;16.17;;;7.20;;
43933;SDS011;59081;42.706;23.306;2024-03-23T06:06:39;11.82;;;5.45;;
43933;SDS011;59081;42.706;23.306;2024-03-23T06:11:40;15.65;;;6.93;;
43933;SDS011;59081;42.706;23.306;2024-03-23T06:16:43;13.38;;;7.50;;
43933;SDS011;59081;42.706;23.306;2024-03-23T06:21:44;15.75;;;7.70;;
43933;SDS011;59081;42.706;23.306;2024-03-23T06:26:45;17.98;;;8.32;;
43933;SDS011;59081;42.706;23.306;2024-03-23T06:31:51;12.02;;;7.38;;
43933;SDS011;59081;42.706;23.306;2024-03-23T06:36:54;14.95;;;7.80;;
43933;SDS011;59081;42.706;23.306;2024-03-23T06:41:55;15.80;;;7.93;;
43933;SDS011;59081;42.706;23.306;2024-03-23T06:46:57;14.35;;;7.45;;
43933;SDS011;59081;42.706;23.306;2024-03-23T06:51:57;18.40;;;8.35;;
43933;SDS011;59081;42.706;23.306;2024-03-23T06:56:58;20.45;;;9.20;;
43933;SDS011;59081;42.706;23.306;2024-03-23T07:01:58;19.35;;;8.82;;
43933;SDS011;59081;42.706;23.306;2024-03-23T07:06:59;18.67;;;9.27;;
43933;SDS011;59081;42.706;23.306;2024-03-23T07:12:00;19.80;;;8.77;;
43933;SDS011;59081;42.706;23.306;2024-03-23T07:17:00;21.60;;;7.93;;
43933;SDS011;59081;42.706;23.306;2024-03-23T07:22:01;14.98;;;7.70;;
43933;SDS011;59081;42.706;23.306;2024-03-23T07:27:01;20.38;;;9.65;;
43933;SDS011;59081;42.706;23.306;2024-03-23T07:32:03;20.08;;;8.82;;
43933;SDS011;59081;42.706;23.306;2024-03-23T07:37:04;14.75;;;8.75;;
43933;SDS011;59081;42.706;23.306;2024-03-23T07:42:05;55.47;;;34.40;;
43933;SDS011;59081;42.706;23.306;2024-03-23T07:47:06;17.50;;;8.80;;
43933;SDS011;59081;42.706;23.306;2024-03-23T07:52:07;19.52;;;8.52;;
43933;SDS011;59081;42.706;23.306;2024-03-23T07:57:08;15.90;;;8.88;;
43933;SDS011;59081;42.706;23.306;2024-03-23T08:02:09;16.27;;;8.30;;
43933;SDS011;59081;42.706;23.306;2024-03-23T08:07:10;14.05;;;8.77;;
43933;SDS011;59081;42.706;23.306;2024-03-23T08:12:11;14.50;;;8.57;;
43933;SDS011;59081;42.706;23.306;2024-03-23T08:17:11;18.75;;;9.80;;
43933;SDS011;59081;42.706;23.306;2024-03-23T08:22:12;22.95;;;9.00;;
43933;SDS011;59081;42.706;23.306;2024-03-23T08:27:13;17.50;;;8.93;;
43933;SDS011;59081;42.706;23.306;2024-03-23T08:32:13;18.38;;;8.90;;
43933;SDS011;59081;42.706;23.306;2024-03-23T08:37:14;17.02;;;9.10;;
43933;SDS011;59081;42.706;23.306;2024-03-23T08:42:14;14.73;;;8.90;;
43933;SDS011;59081;42.706;23.306;2024-03-23T08:47:15;14.50;;;8.45;;
43933;SDS011;59081;42.706;23.306;2024-03-23T08:52:16;15.35;;;8.82;;
43933;SDS011;59081;42.706;23.306;2024-03-23T08:57:17;16.42;;;9.90;;
43933;SDS011;59081;42.706;23.306;2024-03-23T09:02:17;25.45;;;12.93;;
43933;SDS011;59081;42.706;23.306;2024-03-23T09:07:18;22.08;;;10.57;;
43933;SDS011;59081;42.706;23.306;2024-03-23T09:12:18;21.17;;;9.13;;
43933;SDS011;59081;42.706;23.306;2024-03-23T09:17:19;20.02;;;9.15;;
43933;SDS011;59081;42.706;23.306;2024-03-23T09:22:19;20.10;;;8.82;;
43933;SDS011;59081;42.706;23.306;2024-03-23T09:27:20;23.77;;;10.52;;
43933;SDS011;59081;42.706;23.306;2024-03-23T09:32:20;20.67;;;11.00;;
43933;SDS011;59081;42.706;23.306;2024-03-23T09:37:21;14.15;;;8.68;;
43933;SDS011;59081;42.706;23.306;2024-03-23T09:42:21;17.27;;;9.23;;
43933;SDS011;59081;42.706;23.306;2024-03-23T09:47:25;21.02;;;10.23;;
43933;SDS011;59081;42.706;23.306;2024-03-23T09:52:26;22.90;;;10.30;;
43933;SDS011;59081;42.706;23.306;2024-03-23T09:57:27;19.88;;;9.45;;
43933;SDS011;59081;42.706;23.306;2024-03-23T10:02:33;15.88;;;8.60;;
43933;SDS011;59081;42.706;23.306;2024-03-23T10:07:35;19.83;;;8.93;;
43933;SDS011;59081;42.706;23.306;2024-03-23T10:12:35;15.70;;;9.63;;
43933;SDS011;59081;42.706;23.306;2024-03-23T10:17:43;15.05;;;9.35;;
43933;SDS011;59081;42.706;23.306;2024-03-23T10:22:45;18.20;;;8.57;;
43933;SDS011;59081;42.706;23.306;2024-03-23T10:27:46;13.93;;;7.30;;
43933;SDS011;59081;42.706;23.306;2024-03-23T10:33:08;13.15;;;9.50;;
43933;SDS011;59081;42.706;23.306;2024-03-23T10:38:09;10.75;;;6.40;;
43933;SDS011;59081;42.706;23.306;2024-03-23T10:43:10;14.30;;;8.60;;
43933;SDS011;59081;42.706;23.306;2024-03-23T10:48:12;11.38;;;8.07;;
43933;SDS011;59081;42.706;23.306;2024-03-23T10:53:12;13.68;;;7.97;;
43933;SDS011;59081;42.706;23.306;2024-03-23T10:58:15;11.68;;;7.00;;
43933;SDS011;59081;42.706;23.306;2024-03-23T11:03:35;12.73;;;7.25;;
43933;SDS011;59081;42.706;23.306;2024-03-23T11:08:37;12.10;;;7.30;;
43933;SDS011;59081;42.706;23.306;2024-03-23T11:13:39;11.55;;;6.70;;
43933;SDS011;59081;42.706;23.306;2024-03-23T11:18:45;11.55;;;6.15;;
43933;SDS011;59081;42.706;23.306;2024-03-23T11:23:46;15.85;;;6.43;;
43933;SDS011;59081;42.706;23.306;2024-03-23T11:28:46;11.20;;;6.13;;
43933;SDS011;59081;42.706;23.306;2024-03-23T11:33:47;13.48;;;5.95;;
43933;SDS011;59081;42.706;23.306;2024-03-23T11:38:47;13.07;;;5.18;;
43933;SDS011;59081;42.706;23.306;2024-03-23T11:43:48;9.73;;;4.70;;
43933;SDS011;59081;42.706;23.306;2024-03-23T11:48:51;14.50;;;6.10;;
43933;SDS011;59081;42.706;23.306;2024-03-23T11:53:52;8.25;;;4.93;;
43933;SDS011;59081;42.706;23.306;2024-03-23T11:58:53;11.60;;;5.43;;
43933;SDS011;59081;42.706;23.306;2024-03-23T12:03:54;12.43;;;5.68;;
43933;SDS011;59081;42.706;23.306;2024-03-23T12:08:54;13.73;;;5.80;;
43933;SDS011;59081;42.706;23.306;2024-03-23T12:14:06;11.63;;;5.35;;
43933;SDS011;59081;42.706;23.306;2024-03-23T12:19:06;11.23;;;5.55;;
43933;SDS011;59081;42.706;23.306;2024-03-23T12:24:07;13.77;;;4.90;;
43933;SDS011;59081;42.706;23.306;2024-03-23T12:29:08;12.00;;;4.73;;
43933;SDS011;59081;42.706;23.306;2024-03-23T12:34:08;10.50;;;4.20;;
43933;SDS011;59081;42.706;23.306;2024-03-23T12:39:09;7.57;;;3.97;;
43933;SDS011;59081;42.706;23.306;2024-03-23T12:44:09;11.07;;;4.13;;
43933;SDS011;59081;42.706;23.306;2024-03-23T12:49:11;7.88;;;3.42;;
43933;SDS011;59081;42.706;23.306;2024-03-23T12:54:12;6.63;;;3.13;;
43933;SDS011;59081;42.706;23.306;2024-03-23T12:59:13;1.80;;;1.27;;
43933;SDS011;59081;42.706;23.306;2024-03-23T13:04:14;1.80;;;1.43;;
43933;SDS011;59081;42.706;23.306;2024-03-23T13:09:15;5.50;;;1.88;;
43933;SDS011;59081;42.706;23.306;2024-03-23T13:14:17;3.22;;;1.75;;
43933;SDS011;59081;42.706;23.306;2024-03-23T13:19:18;6.60;;;1.83;;
43933;SDS011;59081;42.706;23.306;2024-03-23T13:24:21;6.35;;;1.25;;
43933;SDS011;59081;42.706;23.306;2024-03-23T13:29:23;3.80;;;1.52;;
43933;SDS011;59081;42.706;23.306;2024-03-23T13:34:24;2.35;;;1.17;;
43933;SDS011;59081;42.706;23.306;2024-03-23T13:39:25;3.43;;;1.50;;
43933;SDS011;59081;42.706;23.306;2024-03-23T13:44:27;2.58;;;1.42;;
43933;SDS011;59081;42.706;23.306;2024-03-23T13:49:29;2.83;;;1.80;;
43933;SDS011;59081;42.706;23.306;2024-03-23T13:54:30;3.75;;;1.67;;
43933;SDS011;59081;42.706;23.306;2024-03-23T13:59:31;3.63;;;1.67;;
43933;SDS011;59081;42.706;23.306;2024-03-23T14:04:38;2.67;;;1.60;;
43933;SDS011;59081;42.706;23.306;2024-03-23T14:09:39;5.22;;;2.40;;
43933;SDS011;59081;42.706;23.306;2024-03-23T14:14:39;5.73;;;2.70;;
43933;SDS011;59081;42.706;23.306;2024-03-23T14:19:40;4.60;;;1.47;;
43933;SDS011;59081;42.706;23.306;2024-03-23T14:24:40;9.00;;;1.77;;
43933;SDS011;59081;42.706;23.306;2024-03-23T14:29:41;4.65;;;2.40;;
43933;SDS011;59081;42.706;23.306;2024-03-23T14:34:41;2.72;;;1.60;;
43933;SDS011;59081;42.706;23.306;2024-03-23T14:39:42;4.40;;;2.27;;
43933;SDS011;59081;42.706;23.306;2024-03-23T14:44:44;3.70;;;2.15;;
43933;SDS011;59081;42.706;23.306;2024-03-23T14:49:45;4.77;;;1.90;;
43933;SDS011;59081;42.706;23.306;2024-03-23T14:54:50;5.97;;;2.53;;
43933;SDS011;59081;42.706;23.306;2024-03-23T14:59:52;6.22;;;2.50;;
43933;SDS011;59081;42.706;23.306;2024-03-23T15:04:52;1.30;;;1.20;;
43933;SDS011;59081;42.706;23.306;2024-03-23T15:09:54;4.37;;;2.33;;
43933;SDS011;59081;42.706;23.306;2024-03-23T15:14:55;5.28;;;2.10;;
43933;SDS011;59081;42.706;23.306;2024-03-23T15:19:56;5.00;;;2.33;;
43933;SDS011;59081;42.706;23.306;2024-03-23T15:24:57;6.88;;;2.60;;
43933;SDS011;59081;42.706;23.306;2024-03-23T15:29:57;3.63;;;2.28;;
43933;SDS011;59081;42.706;23.306;2024-03-23T15:34:58;5.25;;;2.97;;
43933;SDS011;59081;42.706;23.306;2024-03-23T15:39:59;10.05;;;3.67;;
43933;SDS011;59081;42.706;23.306;2024-03-23T15:44:59;7.30;;;3.05;;
43933;SDS011;59081;42.706;23.306;2024-03-23T15:50:00;7.00;;;3.35;;
43933;SDS011;59081;42.706;23.306;2024-03-23T15:55:03;5.72;;;2.45;;
43933;SDS011;59081;42.706;23.306;2024-03-23T16:00:08;3.63;;;2.33;;
43933;SDS011;59081;42.706;23.306;2024-03-23T16:05:09;3.40;;;2.28;;
43933;SDS011;59081;42.706;23.306;2024-03-23T16:10:11;4.77;;;2.80;;
43933;SDS011;59081;42.706;23.306;2024-03-23T16:15:12;8.50;;;3.38;;
43933;SDS011;59081;42.706;23.306;2024-03-23T16:20:12;5.25;;;2.90;;
43933;SDS011;59081;42.706;23.306;2024-03-23T16:25:13;6.65;;;3.15;;
43933;SDS011;59081;42.706;23.306;2024-03-23T16:30:13;3.28;;;2.17;;
43933;SDS011;59081;42.706;23.306;2024-03-23T16:35:15;5.90;;;2.50;;
43933;SDS011;59081;42.706;23.306;2024-03-23T16:40:16;4.63;;;2.83;;
43933;SDS011;59081;42.706;23.306;2024-03-23T16:45:17;8.77;;;2.88;;
43933;SDS011;59081;42.706;23.306;2024-03-23T16:50:17;3.60;;;2.10;;
43933;SDS011;59081;42.706;23.306;2024-03-23T16:55:18;6.80;;;3.10;;
43933;SDS011;59081;42.706;23.306;2024-03-23T17:00:18;8.25;;;3.30;;
43933;SDS011;59081;42.706;23.306;2024-03-23T17:05:19;4.35;;;3.00;;
43933;SDS011;59081;42.706;23.306;2024-03-23T17:10:22;6.25;;;3.58;;
43933;SDS011;59081;42.706;23.306;2024-03-23T17:15:23;4.68;;;2.95;;
43933;SDS011;59081;42.706;23.306;2024-03-23T17:20:24;10.25;;;5.82;;
43933;SDS011;59081;42.706;23.306;2024-03-23T17:25:24;8.20;;;4.30;;
43933;SDS011;59081;42.706;23.306;2024-03-23T17:30:25;3.05;;;2.38;;
43933;SDS011;59081;42.706;23.306;2024-03-23T17:35:26;11.32;;;3.80;;
43933;SDS011;59081;42.706;23.306;2024-03-23T17:40:27;5.60;;;4.18;;
43933;SDS011;59081;42.706;23.306;2024-03-23T17:45:27;7.57;;;4.05;;
43933;SDS011;59081;42.706;23.306;2024-03-23T17:50:28;9.60;;;4.53;;
43933;SDS011;59081;42.706;23.306;2024-03-23T17:55:29;7.18;;;3.83;;
43933;SDS011;59081;42.706;23.306;2024-03-23T18:00:32;5.63;;;3.13;;
43933;SDS011;59081;42.706;23.306;2024-03-23T18:05:33;4.80;;;2.53;;
43933;SDS011;59081;42.706;23.306;2024-03-23T18:10:34;6.22;;;3.38;;
43933;SDS011;59081;42.706;23.306;2024-03-23T18:15:37;6.70;;;3.63;;
43933;SDS011;59081;42.706;23.306;2024-03-23T18:20:43;4.85;;;3.20;;
43933;SDS011;59081;42.706;23.306;2024-03-23T18:25:53;10.18;;;6.57;;
43933;SDS011;59081;42.706;23.306;2024-03-23T18:31:00;2.97;;;1.75;;
43933;SDS011;59081;42.706;23.306;2024-03-23T18:36:01;10.90;;;5.07;;
43933;SDS011;59081;42.706;23.306;2024-03-23T18:41:02;18.58;;;8.95;;
43933;SDS011;59081;42.706;23.306;2024-03-23T18:46:03;11.15;;;6.50;;
43933;SDS011;59081;42.706;23.306;2024-03-23T18:51:04;16.70;;;10.43;;
43933;SDS011;59081;42.706;23.306;2024-03-23T18:56:05;19.30;;;9.35;;
43933;SDS011;59081;42.706;23.306;2024-03-23T19:01:06;12.15;;;5.93;;
43933;SDS011;59081;42.706;23.306;2024-03-23T19:06:08;13.53;;;6.53;;
43933;SDS011;59081;42.706;23.306;2024-03-23T19:11:08;11.82;;;7.40;;
43933;SDS011;59081;42.706;23.306;2024-03-23T19:16:09;13.32;;;6.85;;
43933;SDS011;59081;42.706;23.306;2024-03-23T19:21:10;12.13;;;6.28;;
43933;SDS011;59081;42.706;23.306;2024-03-23T19:26:10;14.63;;;6.18;;
43933;SDS011;59081;42.706;23.306;2024-03-23T19:31:11;15.32;;;6.43;;
43933;SDS011;59081;42.706;23.306;2024-03-23T19:36:11;15.75;;;7.35;;
43933;SDS011;59081;42.706;23.306;2024-03-23T19:41:12;12.77;;;6.32;;
43933;SDS011;59081;42.706;23.306;2024-03-23T19:46:12;16.05;;;6.93;;
43933;SDS011;59081;42.706;23.306;2024-03-23T19:51:15;15.57;;;9.02;;
43933;SDS011;59081;42.706;23.306;2024-03-23T19:56:15;12.85;;;7.97;;
43933;SDS011;59081;42.706;23.306;2024-03-23T20:01:17;11.00;;;5.93;;
43933;SDS011;59081;42.706;23.306;2024-03-23T20:06:18;18.50;;;8.50;;
43933;SDS011;59081;42.706;23.306;2024-03-23T20:11:25;13.48;;;6.22;;
43933;SDS011;59081;42.706;23.306;2024-03-23T20:16:26;13.88;;;5.22;;
43933;SDS011;59081;42.706;23.306;2024-03-23T20:21:27;14.68;;;7.60;;
43933;SDS011;59081;42.706;23.306;2024-03-23T20:26:29;10.82;;;5.47;;
43933;SDS011;59081;42.706;23.306;2024-03-23T20:31:29;22.50;;;6.20;;
43933;SDS011;59081;42.706;23.306;2024-03-23T20:36:31;18.05;;;7.80;;
43933;SDS011;59081;42.706;23.306;2024-03-23T20:41:31;15.40;;;7.82;;
43933;SDS011;59081;42.706;23.306;2024-03-23T20:46:32;16.80;;;7.38;;
43933;SDS011;59081;42.706;23.306;2024-03-23T20:51:32;10.05;;;5.80;;
43933;SDS011;59081;42.706;23.306;2024-03-23T20:56:34;13.43;;;6.78;;
43933;SDS011;59081;42.706;23.306;2024-03-23T21:01:37;13.48;;;6.60;;
43933;SDS011;59081;42.706;23.306;2024-03-23T21:06:38;9.65;;;5.88;;
43933;SDS011;59081;42.706;23.306;2024-03-23T21:11:39;11.40;;;6.60;;
43933;SDS011;59081;42.706;23.306;2024-03-23T21:16:39;10.50;;;5.28;;
43933;SDS011;59081;42.706;23.306;2024-03-23T21:21:40;14.13;;;6.15;;
43933;SDS011;59081;42.706;23.306;2024-03-23T21:26:42;10.00;;;6.07;;
43933;SDS011;59081;42.706;23.306;2024-03-23T21:31:43;10.25;;;5.45;;
43933;SDS011;59081;42.706;23.306;2024-03-23T21:36:43;13.52;;;7.50;;
43933;SDS011;59081;42.706;23.306;2024-03-23T21:41:44;12.73;;;7.30;;
43933;SDS011;59081;42.706;23.306;2024-03-23T21:46:45;7.78;;;5.30;;
43933;SDS011;59081;42.706;23.306;2024-03-23T21:51:46;13.43;;;6.50;;
43933;SDS011;59081;42.706;23.306;2024-03-23T21:56:47;13.80;;;8.20;;
43933;SDS011;59081;42.706;23.306;2024-03-23T22:01:47;12.75;;;6.07;;
43933;SDS011;59081;42.706;23.306;2024-03-23T22:06:48;11.75;;;5.93;;
43933;SDS011;59081;42.706;23.306;2024-03-23T22:11:49;10.00;;;5.82;;
43933;SDS011;59081;42.706;23.306;2024-03-23T22:16:50;9.32;;;5.03;;
43933;SDS011;59081;42.706;23.306;2024-03-23T22:21:51;9.55;;;5.38;;
43933;SDS011;59081;42.706;23.306;2024-03-23T22:26:51;12.40;;;6.35;;
43933;SDS011;59081;42.706;23.306;2024-03-23T22:31:52;8.75;;;5.30;;
43933;SDS011;59081;42.706;23.306;2024-03-23T22:36:52;10.65;;;6.03;;
43933;SDS011;59081;42.706;23.306;2024-03-23T22:41:53;12.00;;;6.00;;
43933;SDS011;59081;42.706;23.306;2024-03-23T22:46:54;11.65;;;5.53;;
43933;SDS011;59081;42.706;23.306;2024-03-23T22:51:55;18.85;;;7.80;;
43933;SDS011;59081;42.706;23.306;2024-03-23T22:56:55;16.98;;;7.55;;
43933;SDS011;59081;42.706;23.306;2024-03-23T23:01:56;11.35;;;6.63;;
43933;SDS011;59081;42.706;23.306;2024-03-23T23:06:57;11.23;;;5.88;;
43933;SDS011;59081;42.706;23.306;2024-03-23T23:11:57;14.57;;;6.60;;
43933;SDS011;59081;42.706;23.306;2024-03-23T23:16:58;18.77;;;6.50;;
43933;SDS011;59081;42.706;23.306;2024-03-23T23:21:59;13.38;;;6.57;;
43933;SDS011;59081;42.706;23.306;2024-03-23T23:26:59;12.68;;;6.38;;
43933;SDS011;59081;42.706;23.306;2024-03-23T23:32:00;10.20;;;6.07;;
43933;SDS011;59081;42.706;23.306;2024-03-23T23:37:01;10.68;;;5.88;;
43933;SDS011;59081;42.706;23.306;2024-03-23T23:42:04;17.10;;;6.90;;
43933;SDS011;59081;42.706;23.306;2024-03-23T23:47:07;15.82;;;7.07;;
43933;SDS011;59081;42.706;23.306;2024-03-23T23:57:11;12.77;;;6.35;;
